sensor_id;sensor_type;location;lat;lon;timestamp;pressure;altitude;pressure_sealevel;temperature;humidity
7668;BME280;3876;42.204;24.686;2023-06-10T00:00:08;98877.94;;;21.02;100.00
7668;BME280;3876;42.204;24.686;2023-06-10T00:02:39;98880.91;;;20.98;100.00
7668;BME280;3876;42.204;24.686;2023-06-10T00:05:06;98875.72;;;20.98;100.00
7668;BME280;3876;42.204;24.686;2023-06-10T00:07:35;98877.38;;;20.99;100.00
7668;BME280;3876;42.204;24.686;2023-06-10T00:10:04;98876.78;;;20.95;100.00
7668;BME280;3876;42.204;24.686;2023-06-10T00:12:31;98873.59;;;20.91;100.00
7668;BME280;3876;42.204;24.686;2023-06-10T00:15:03;98873.16;;;20.86;100.00
7668;BME280;3876;42.204;24.686;2023-06-10T00:17:30;98884.16;;;20.90;100.00
7668;BME280;3876;42.204;24.686;2023-06-10T00:19:58;98878.13;;;20.89;100.00
7668;BME280;3876;42.204;24.686;2023-06-10T00:22:24;98871.00;;;20.91;100.00
7668;BME280;3876;42.204;24.686;2023-06-10T00:24:55;98875.38;;;20.91;100.00
7668;BME280;3876;42.204;24.686;2023-06-10T00:27:22;98863.69;;;20.85;100.00
7668;BME280;3876;42.204;24.686;2023-06-10T00:29:49;98874.09;;;20.85;100.00
7668;BME280;3876;42.204;24.686;2023-06-10T00:32:15;98878.03;;;20.80;100.00
7668;BME280;3876;42.204;24.686;2023-06-10T00:34:42;98873.75;;;20.79;100.00
7668;BME280;3876;42.204;24.686;2023-06-10T00:37:10;98874.69;;;20.78;100.00
7668;BME280;3876;42.204;24.686;2023-06-10T00:39:37;98881.00;;;20.75;100.00
7668;BME280;3876;42.204;24.686;2023-06-10T00:42:05;98869.28;;;20.70;100.00
7668;BME280;3876;42.204;24.686;2023-06-10T00:44:32;98876.06;;;20.61;100.00
7668;BME280;3876;42.204;24.686;2023-06-10T00:46:59;98880.34;;;20.51;100.00
7668;BME280;3876;42.204;24.686;2023-06-10T00:49:27;98863.41;;;20.46;100.00
7668;BME280;3876;42.204;24.686;2023-06-10T00:51:54;98822.97;;;20.19;100.00
7668;BME280;3876;42.204;24.686;2023-06-10T00:54:22;98871.38;;;20.44;100.00
7668;BME280;3876;42.204;24.686;2023-06-10T00:56:50;98866.00;;;20.46;100.00
7668;BME280;3876;42.204;24.686;2023-06-10T00:59:16;98868.50;;;20.47;100.00
7668;BME280;3876;42.204;24.686;2023-06-10T01:01:45;98867.81;;;20.45;100.00
7668;BME280;3876;42.204;24.686;2023-06-10T01:04:12;98880.13;;;20.43;100.00
7668;BME280;3876;42.204;24.686;2023-06-10T01:06:45;98871.59;;;20.41;100.00
7668;BME280;3876;42.204;24.686;2023-06-10T01:09:23;98871.00;;;20.37;100.00
7668;BME280;3876;42.204;24.686;2023-06-10T01:11:58;98864.16;;;20.36;100.00
7668;BME280;3876;42.204;24.686;2023-06-10T01:14:29;98873.97;;;20.33;100.00
7668;BME280;3876;42.204;24.686;2023-06-10T01:16:57;98876.13;;;20.28;100.00
7668;BME280;3876;42.204;24.686;2023-06-10T01:19:25;98877.06;;;20.27;100.00
7668;BME280;3876;42.204;24.686;2023-06-10T01:21:55;98877.97;;;20.26;100.00
7668;BME280;3876;42.204;24.686;2023-06-10T01:24:22;98871.94;;;20.25;100.00
7668;BME280;3876;42.204;24.686;2023-06-10T01:26:50;98877.97;;;20.26;100.00
7668;BME280;3876;42.204;24.686;2023-06-10T01:29:19;98879.03;;;20.23;100.00
7668;BME280;3876;42.204;24.686;2023-06-10T01:31:50;98884.84;;;20.16;100.00
7668;BME280;3876;42.204;24.686;2023-06-10T01:34:19;98875.84;;;20.09;100.00
7668;BME280;3876;42.204;24.686;2023-06-10T01:36:49;98879.41;;;20.08;100.00
7668;BME280;3876;42.204;24.686;2023-06-10T01:39:21;98873.47;;;19.95;100.00
7668;BME280;3876;42.204;24.686;2023-06-10T01:41:49;98876.56;;;19.88;100.00
7668;BME280;3876;42.204;24.686;2023-06-10T01:44:18;98876.78;;;19.85;100.00
7668;BME280;3876;42.204;24.686;2023-06-10T01:46:45;98882.94;;;19.84;100.00
7668;BME280;3876;42.204;24.686;2023-06-10T01:49:12;98850.88;;;19.73;100.00
7668;BME280;3876;42.204;24.686;2023-06-10T01:51:39;98866.50;;;19.84;100.00
7668;BME280;3876;42.204;24.686;2023-06-10T01:54:06;98867.31;;;19.84;100.00
7668;BME280;3876;42.204;24.686;2023-06-10T01:56:34;98871.91;;;19.81;100.00
7668;BME280;3876;42.204;24.686;2023-06-10T01:59:01;98871.31;;;19.77;100.00
7668;BME280;3876;42.204;24.686;2023-06-10T02:01:28;98866.13;;;19.77;100.00
7668;BME280;3876;42.204;24.686;2023-06-10T02:03:55;98867.78;;;19.78;100.00
7668;BME280;3876;42.204;24.686;2023-06-10T02:06:22;98868.72;;;19.77;100.00
7668;BME280;3876;42.204;24.686;2023-06-10T02:08:49;98872.28;;;19.76;100.00
7668;BME280;3876;42.204;24.686;2023-06-10T02:11:15;98866.59;;;19.71;100.00
7668;BME280;3876;42.204;24.686;2023-06-10T02:13:43;98874.66;;;19.79;100.00
7668;BME280;3876;42.204;24.686;2023-06-10T02:16:10;98878.19;;;19.78;100.00
7668;BME280;3876;42.204;24.686;2023-06-10T02:18:38;98876.53;;;19.77;100.00
7668;BME280;3876;42.204;24.686;2023-06-10T02:21:06;98880.94;;;19.77;100.00
7668;BME280;3876;42.204;24.686;2023-06-10T02:23:32;98880.09;;;19.76;100.00
7668;BME280;3876;42.204;24.686;2023-06-10T02:25:59;98881.72;;;19.77;100.00
7668;BME280;3876;42.204;24.686;2023-06-10T02:28:26;98882.81;;;19.75;100.00
7668;BME280;3876;42.204;24.686;2023-06-10T02:30:54;98885.31;;;19.76;100.00
7668;BME280;3876;42.204;24.686;2023-06-10T02:33:22;98890.72;;;19.73;100.00
7668;BME280;3876;42.204;24.686;2023-06-10T02:35:49;98892.59;;;19.71;100.00
7668;BME280;3876;42.204;24.686;2023-06-10T02:38:16;98886.00;;;19.67;100.00
7668;BME280;3876;42.204;24.686;2023-06-10T02:40:43;98888.59;;;19.67;100.00
7668;BME280;3876;42.204;24.686;2023-06-10T02:43:10;98881.72;;;19.66;100.00
7668;BME280;3876;42.204;24.686;2023-06-10T02:45:37;98891.81;;;19.71;100.00
7668;BME280;3876;42.204;24.686;2023-06-10T02:48:05;98894.50;;;19.69;100.00
7668;BME280;3876;42.204;24.686;2023-06-10T02:50:32;98871.78;;;19.60;100.00
7668;BME280;3876;42.204;24.686;2023-06-10T02:52:59;98889.41;;;19.68;100.00
7668;BME280;3876;42.204;24.686;2023-06-10T02:55:25;98898.88;;;19.69;100.00
7668;BME280;3876;42.204;24.686;2023-06-10T02:57:53;98894.28;;;19.72;100.00
7668;BME280;3876;42.204;24.686;2023-06-10T03:00:21;98888.84;;;19.75;100.00
7668;BME280;3876;42.204;24.686;2023-06-10T03:02:47;98886.13;;;19.77;100.00
7668;BME280;3876;42.204;24.686;2023-06-10T03:05:16;98896.41;;;19.78;100.00
7668;BME280;3876;42.204;24.686;2023-06-10T03:07:42;98895.22;;;19.82;100.00
7668;BME280;3876;42.204;24.686;2023-06-10T03:10:11;98891.94;;;19.80;100.00
7668;BME280;3876;42.204;24.686;2023-06-10T03:12:38;98897.69;;;19.84;100.00
7668;BME280;3876;42.204;24.686;2023-06-10T03:15:06;98901.88;;;19.86;100.00
7668;BME280;3876;42.204;24.686;2023-06-10T03:17:33;98912.03;;;19.89;100.00
7668;BME280;3876;42.204;24.686;2023-06-10T03:19:59;98893.34;;;19.84;100.00
7668;BME280;3876;42.204;24.686;2023-06-10T03:22:28;98899.50;;;19.95;100.00
7668;BME280;3876;42.204;24.686;2023-06-10T03:24:54;98897.81;;;19.93;100.00
7668;BME280;3876;42.204;24.686;2023-06-10T03:27:22;98899.25;;;19.98;100.00
7668;BME280;3876;42.204;24.686;2023-06-10T03:29:49;98896.56;;;19.99;100.00
7668;BME280;3876;42.204;24.686;2023-06-10T03:32:16;98909.66;;;19.98;100.00
7668;BME280;3876;42.204;24.686;2023-06-10T03:34:43;98906.13;;;19.99;100.00
7668;BME280;3876;42.204;24.686;2023-06-10T03:37:11;98907.78;;;20.00;100.00
7668;BME280;3876;42.204;24.686;2023-06-10T03:39:39;98897.81;;;19.93;100.00
7668;BME280;3876;42.204;24.686;2023-06-10T03:42:06;98898.78;;;19.92;100.00
7668;BME280;3876;42.204;24.686;2023-06-10T03:44:33;98906.59;;;19.92;100.00
7668;BME280;3876;42.204;24.686;2023-06-10T03:47:00;98896.44;;;19.89;100.00
7668;BME280;3876;42.204;24.686;2023-06-10T03:49:27;98896.91;;;19.95;100.00
7668;BME280;3876;42.204;24.686;2023-06-10T03:51:54;98889.09;;;19.95;100.00
7668;BME280;3876;42.204;24.686;2023-06-10T03:54:21;98900.69;;;20.02;100.00
7668;BME280;3876;42.204;24.686;2023-06-10T03:56:50;98895.72;;;19.99;100.00
7668;BME280;3876;42.204;24.686;2023-06-10T03:59:16;98895.50;;;20.02;100.00
7668;BME280;3876;42.204;24.686;2023-06-10T04:01:43;98903.06;;;20.05;100.00
7668;BME280;3876;42.204;24.686;2023-06-10T04:04:14;98900.44;;;20.05;100.00
7668;BME280;3876;42.204;24.686;2023-06-10T04:06:41;98903.19;;;20.03;100.00
7668;BME280;3876;42.204;24.686;2023-06-10T04:09:09;98896.19;;;20.04;100.00
7668;BME280;3876;42.204;24.686;2023-06-10T04:11:36;98899.63;;;20.04;100.00
7668;BME280;3876;42.204;24.686;2023-06-10T04:14:04;98910.84;;;20.05;100.00
7668;BME280;3876;42.204;24.686;2023-06-10T04:16:31;98904.47;;;19.98;100.00
7668;BME280;3876;42.204;24.686;2023-06-10T04:18:58;98902.81;;;19.97;100.00
7668;BME280;3876;42.204;24.686;2023-06-10T04:21:25;98907.66;;;20.01;100.00
7668;BME280;3876;42.204;24.686;2023-06-10T04:23:52;98913.22;;;19.97;100.00
7668;BME280;3876;42.204;24.686;2023-06-10T04:26:19;98907.06;;;19.98;100.00
7668;BME280;3876;42.204;24.686;2023-06-10T04:28:47;98902.34;;;20.03;100.00
7668;BME280;3876;42.204;24.686;2023-06-10T04:31:15;98895.25;;;20.05;100.00
7668;BME280;3876;42.204;24.686;2023-06-10T04:33:42;98903.53;;;20.10;100.00
7668;BME280;3876;42.204;24.686;2023-06-10T04:36:08;98898.31;;;20.10;100.00
7668;BME280;3876;42.204;24.686;2023-06-10T04:38:35;98908.72;;;20.10;100.00
7668;BME280;3876;42.204;24.686;2023-06-10T04:41:02;98911.56;;;20.07;100.00
7668;BME280;3876;42.204;24.686;2023-06-10T04:43:29;98903.03;;;19.93;100.00
7668;BME280;3876;42.204;24.686;2023-06-10T04:45:56;98901.50;;;19.80;100.00
7668;BME280;3876;42.204;24.686;2023-06-10T04:48:24;98891.94;;;19.80;100.00
7668;BME280;3876;42.204;24.686;2023-06-10T04:50:51;98893.34;;;19.84;100.00
7668;BME280;3876;42.204;24.686;2023-06-10T04:53:18;98895.59;;;19.89;100.00
7668;BME280;3876;42.204;24.686;2023-06-10T04:55:46;98903.03;;;19.93;100.00
7668;BME280;3876;42.204;24.686;2023-06-10T04:58:13;98906.59;;;19.92;100.00
7668;BME280;3876;42.204;24.686;2023-06-10T05:00:41;98909.66;;;19.98;100.00
7668;BME280;3876;42.204;24.686;2023-06-10T05:03:09;98902.13;;;20.06;100.00
7668;BME280;3876;42.204;24.686;2023-06-10T05:05:37;98904.09;;;20.13;100.00
7668;BME280;3876;42.204;24.686;2023-06-10T05:08:03;98907.81;;;20.22;100.00
7668;BME280;3876;42.204;24.686;2023-06-10T05:10:30;98909.97;;;20.28;100.00
7668;BME280;3876;42.204;24.686;2023-06-10T05:12:57;98907.56;;;20.36;100.00
7668;BME280;3876;42.204;24.686;2023-06-10T05:15:24;98907.91;;;20.42;100.00
7668;BME280;3876;42.204;24.686;2023-06-10T05:17:51;98902.38;;;20.47;100.00
7668;BME280;3876;42.204;24.686;2023-06-10T05:20:18;98906.84;;;20.56;100.00
7668;BME280;3876;42.204;24.686;2023-06-10T05:22:46;98888.41;;;20.48;100.00
7668;BME280;3876;42.204;24.686;2023-06-10T05:25:13;98890.53;;;20.54;100.00
7668;BME280;3876;42.204;24.686;2023-06-10T05:27:40;98909.44;;;20.67;100.00
7668;BME280;3876;42.204;24.686;2023-06-10T05:30:09;98901.00;;;20.75;100.00
7668;BME280;3876;42.204;24.686;2023-06-10T05:32:36;98903.25;;;20.79;100.00
7668;BME280;3876;42.204;24.686;2023-06-10T05:35:03;98891.66;;;20.72;100.00
7668;BME280;3876;42.204;24.686;2023-06-10T05:37:33;98901.94;;;20.85;100.00
7668;BME280;3876;42.204;24.686;2023-06-10T05:40:01;98901.47;;;20.80;100.00
7668;BME280;3876;42.204;24.686;2023-06-10T05:42:29;98901.59;;;20.78;100.00
7668;BME280;3876;42.204;24.686;2023-06-10T05:44:56;98905.72;;;20.81;100.00
7668;BME280;3876;42.204;24.686;2023-06-10T05:47:22;98892.34;;;20.85;100.00
7668;BME280;3876;42.204;24.686;2023-06-10T05:49:49;98906.53;;;20.92;100.00
7668;BME280;3876;42.204;24.686;2023-06-10T05:52:17;98912.91;;;21.00;100.00
7668;BME280;3876;42.204;24.686;2023-06-10T05:54:44;98911.44;;;21.07;100.00
7668;BME280;3876;42.204;24.686;2023-06-10T05:57:12;98915.72;;;21.19;100.00
7668;BME280;3876;42.204;24.686;2023-06-10T05:59:39;98910.91;;;21.35;100.00
7668;BME280;3876;42.204;24.686;2023-06-10T06:02:05;98917.59;;;21.49;100.00
7668;BME280;3876;42.204;24.686;2023-06-10T06:04:34;98914.28;;;21.67;100.00
7668;BME280;3876;42.204;24.686;2023-06-10T06:07:00;98911.06;;;21.95;100.00
7668;BME280;3876;42.204;24.686;2023-06-10T06:09:27;98915.38;;;22.46;100.00
7668;BME280;3876;42.204;24.686;2023-06-10T06:11:54;98923.47;;;22.73;100.00
7668;BME280;3876;42.204;24.686;2023-06-10T06:14:22;98918.97;;;22.94;98.82
7668;BME280;3876;42.204;24.686;2023-06-10T06:16:49;98919.97;;;23.22;96.67
7668;BME280;3876;42.204;24.686;2023-06-10T06:19:15;98916.13;;;23.45;93.11
7668;BME280;3876;42.204;24.686;2023-06-10T06:21:42;98911.00;;;23.63;93.39
7668;BME280;3876;42.204;24.686;2023-06-10T06:24:09;98915.25;;;23.83;91.68
7668;BME280;3876;42.204;24.686;2023-06-10T06:26:36;98915.19;;;24.02;90.94
7668;BME280;3876;42.204;24.686;2023-06-10T06:29:02;98916.69;;;24.15;91.51
7668;BME280;3876;42.204;24.686;2023-06-10T06:31:31;98916.22;;;24.29;88.28
7668;BME280;3876;42.204;24.686;2023-06-10T06:33:58;98914.00;;;24.34;88.83
7668;BME280;3876;42.204;24.686;2023-06-10T06:36:24;98912.25;;;24.52;87.16
7668;BME280;3876;42.204;24.686;2023-06-10T06:38:51;98913.78;;;24.72;86.69
7668;BME280;3876;42.204;24.686;2023-06-10T06:41:18;98911.59;;;24.95;81.71
7668;BME280;3876;42.204;24.686;2023-06-10T06:43:45;98908.31;;;25.11;82.77
7668;BME280;3876;42.204;24.686;2023-06-10T06:46:12;98911.59;;;25.48;83.83
7668;BME280;3876;42.204;24.686;2023-06-10T06:48:40;98898.66;;;25.72;82.43
7668;BME280;3876;42.204;24.686;2023-06-10T06:51:06;98910.00;;;25.98;77.24
7668;BME280;3876;42.204;24.686;2023-06-10T06:53:33;98905.38;;;25.92;75.84
7668;BME280;3876;42.204;24.686;2023-06-10T06:56:01;98903.06;;;25.89;75.03
7668;BME280;3876;42.204;24.686;2023-06-10T06:58:28;98901.25;;;25.90;76.62
7668;BME280;3876;42.204;24.686;2023-06-10T07:00:55;98902.19;;;26.06;77.48
7668;BME280;3876;42.204;24.686;2023-06-10T07:03:21;98880.22;;;26.16;75.45
7668;BME280;3876;42.204;24.686;2023-06-10T07:05:49;98895.75;;;26.35;74.90
7668;BME280;3876;42.204;24.686;2023-06-10T07:08:16;98892.66;;;26.39;74.68
7668;BME280;3876;42.204;24.686;2023-06-10T07:10:43;98892.69;;;26.14;74.15
7668;BME280;3876;42.204;24.686;2023-06-10T07:13:10;98892.50;;;26.07;75.17
7668;BME280;3876;42.204;24.686;2023-06-10T07:15:38;98885.06;;;26.02;76.34
7668;BME280;3876;42.204;24.686;2023-06-10T07:18:04;98883.47;;;26.09;76.01
7668;BME280;3876;42.204;24.686;2023-06-10T07:20:31;98890.63;;;26.25;75.33
7668;BME280;3876;42.204;24.686;2023-06-10T07:22:59;98879.09;;;26.60;78.20
7668;BME280;3876;42.204;24.686;2023-06-10T07:25:26;98878.69;;;27.05;74.08
7668;BME280;3876;42.204;24.686;2023-06-10T07:27:53;98874.28;;;27.38;72.40
7668;BME280;3876;42.204;24.686;2023-06-10T07:30:20;98877.88;;;27.77;69.24
7668;BME280;3876;42.204;24.686;2023-06-10T07:32:46;98881.94;;;28.12;67.57
7668;BME280;3876;42.204;24.686;2023-06-10T07:35:13;98879.91;;;28.30;68.57
7668;BME280;3876;42.204;24.686;2023-06-10T07:37:40;98877.84;;;28.48;68.85
7668;BME280;3876;42.204;24.686;2023-06-10T07:40:09;98883.25;;;28.55;64.81
7668;BME280;3876;42.204;24.686;2023-06-10T07:42:36;98884.28;;;28.46;63.34
7668;BME280;3876;42.204;24.686;2023-06-10T07:45:03;98877.00;;;28.48;65.02
7668;BME280;3876;42.204;24.686;2023-06-10T07:47:32;98875.19;;;28.79;64.74
7668;BME280;3876;42.204;24.686;2023-06-10T07:49:59;98879.16;;;29.06;64.21
7668;BME280;3876;42.204;24.686;2023-06-10T07:52:26;98878.91;;;29.15;66.20
7668;BME280;3876;42.204;24.686;2023-06-10T07:54:54;98882.50;;;29.23;62.65
7668;BME280;3876;42.204;24.686;2023-06-10T07:57:22;98877.50;;;29.50;62.42
7668;BME280;3876;42.204;24.686;2023-06-10T07:59:48;98866.25;;;29.71;63.93
7668;BME280;3876;42.204;24.686;2023-06-10T08:02:15;98879.88;;;29.97;59.19
7668;BME280;3876;42.204;24.686;2023-06-10T08:04:42;98889.16;;;30.23;59.98
7668;BME280;3876;42.204;24.686;2023-06-10T08:07:09;98877.66;;;30.45;58.59
7668;BME280;3876;42.204;24.686;2023-06-10T08:09:35;98884.56;;;30.60;58.61
7668;BME280;3876;42.204;24.686;2023-06-10T08:12:03;98888.31;;;30.66;58.32
7668;BME280;3876;42.204;24.686;2023-06-10T08:14:31;98886.13;;;30.55;55.25
7668;BME280;3876;42.204;24.686;2023-06-10T08:16:58;98883.63;;;30.17;54.82
7668;BME280;3876;42.204;24.686;2023-06-10T08:19:24;98874.19;;;30.15;56.49
7668;BME280;3876;42.204;24.686;2023-06-10T08:21:51;98882.50;;;30.12;57.28
7668;BME280;3876;42.204;24.686;2023-06-10T08:24:18;98877.84;;;29.99;57.24
7668;BME280;3876;42.204;24.686;2023-06-10T08:26:45;98877.50;;;30.02;55.93
7668;BME280;3876;42.204;24.686;2023-06-10T08:29:12;98878.22;;;30.11;56.40
7668;BME280;3876;42.204;24.686;2023-06-10T08:31:42;98877.31;;;30.04;56.27
7668;BME280;3876;42.204;24.686;2023-06-10T08:34:09;98874.78;;;30.10;56.10
7668;BME280;3876;42.204;24.686;2023-06-10T08:36:37;98877.13;;;30.20;55.38
7668;BME280;3876;42.204;24.686;2023-06-10T08:39:04;98878.66;;;30.29;55.54
7668;BME280;3876;42.204;24.686;2023-06-10T08:41:34;98877.84;;;30.29;56.18
7668;BME280;3876;42.204;24.686;2023-06-10T08:44:06;98878.75;;;30.50;55.87
7668;BME280;3876;42.204;24.686;2023-06-10T08:46:35;98873.75;;;30.41;55.32
7668;BME280;3876;42.204;24.686;2023-06-10T08:49:06;98875.66;;;30.32;55.32
7668;BME280;3876;42.204;24.686;2023-06-10T08:51:35;98872.00;;;30.33;58.30
7668;BME280;3876;42.204;24.686;2023-06-10T08:54:05;98864.81;;;30.12;54.97
7668;BME280;3876;42.204;24.686;2023-06-10T08:56:39;98871.22;;;29.89;55.01
7668;BME280;3876;42.204;24.686;2023-06-10T08:59:06;98864.19;;;29.96;57.21
7668;BME280;3876;42.204;24.686;2023-06-10T09:01:33;98866.38;;;29.92;55.54
7668;BME280;3876;42.204;24.686;2023-06-10T09:04:01;98863.66;;;29.63;55.48
7668;BME280;3876;42.204;24.686;2023-06-10T09:06:32;98861.38;;;29.60;58.65
7668;BME280;3876;42.204;24.686;2023-06-10T09:08:59;98855.31;;;29.59;56.77
7668;BME280;3876;42.204;24.686;2023-06-10T09:11:26;98858.47;;;29.69;57.84
7668;BME280;3876;42.204;24.686;2023-06-10T09:13:53;98854.47;;;29.59;58.37
7668;BME280;3876;42.204;24.686;2023-06-10T09:16:20;98850.28;;;29.50;59.70
7668;BME280;3876;42.204;24.686;2023-06-10T09:18:46;98854.13;;;29.25;61.06
7668;BME280;3876;42.204;24.686;2023-06-10T09:21:14;98850.31;;;29.04;60.59
7668;BME280;3876;42.204;24.686;2023-06-10T09:23:42;98849.00;;;28.78;62.72
7668;BME280;3876;42.204;24.686;2023-06-10T09:26:09;98851.88;;;28.68;63.23
7668;BME280;3876;42.204;24.686;2023-06-10T09:28:37;98855.53;;;28.59;61.47
7668;BME280;3876;42.204;24.686;2023-06-10T09:31:05;98853.69;;;28.37;60.20
7668;BME280;3876;42.204;24.686;2023-06-10T09:33:33;98855.91;;;28.17;60.32
7668;BME280;3876;42.204;24.686;2023-06-10T09:36:03;98855.31;;;27.91;59.49
7668;BME280;3876;42.204;24.686;2023-06-10T09:38:31;98852.22;;;27.71;57.74
7668;BME280;3876;42.204;24.686;2023-06-10T09:41:00;98854.69;;;27.64;57.57
7668;BME280;3876;42.204;24.686;2023-06-10T09:43:39;98845.34;;;27.30;59.81
7668;BME280;3876;42.204;24.686;2023-06-10T09:46:06;98846.31;;;27.61;61.78
7668;BME280;3876;42.204;24.686;2023-06-10T09:48:35;98847.53;;;27.97;59.84
7668;BME280;3876;42.204;24.686;2023-06-10T09:51:08;98845.88;;;28.12;60.18
7668;BME280;3876;42.204;24.686;2023-06-10T09:53:35;98835.03;;;28.07;61.88
7668;BME280;3876;42.204;24.686;2023-06-10T09:56:03;98841.91;;;28.47;60.00
7668;BME280;3876;42.204;24.686;2023-06-10T09:58:34;98843.13;;;28.67;58.28
7668;BME280;3876;42.204;24.686;2023-06-10T10:01:04;98854.13;;;28.40;57.49
7668;BME280;3876;42.204;24.686;2023-06-10T10:03:31;98852.41;;;28.55;57.84
7668;BME280;3876;42.204;24.686;2023-06-10T10:05:59;98842.28;;;28.75;60.61
7668;BME280;3876;42.204;24.686;2023-06-10T10:08:26;98837.41;;;28.87;57.49
7668;BME280;3876;42.204;24.686;2023-06-10T10:10:53;98846.25;;;28.71;57.57
7668;BME280;3876;42.204;24.686;2023-06-10T10:13:22;98851.22;;;28.89;57.54
7668;BME280;3876;42.204;24.686;2023-06-10T10:15:50;98844.69;;;29.07;57.28
7668;BME280;3876;42.204;24.686;2023-06-10T10:18:19;98842.56;;;29.26;55.80
7668;BME280;3876;42.204;24.686;2023-06-10T10:20:54;98840.56;;;29.28;55.45
7668;BME280;3876;42.204;24.686;2023-06-10T10:23:26;98842.84;;;29.31;54.93
7668;BME280;3876;42.204;24.686;2023-06-10T10:25:57;98833.88;;;29.40;55.46
7668;BME280;3876;42.204;24.686;2023-06-10T10:28:34;98838.63;;;29.59;54.72
7668;BME280;3876;42.204;24.686;2023-06-10T10:31:08;98846.19;;;29.77;55.25
7668;BME280;3876;42.204;24.686;2023-06-10T10:33:45;98844.63;;;29.53;53.31
7668;BME280;3876;42.204;24.686;2023-06-10T10:36:13;98834.91;;;29.31;53.27
7668;BME280;3876;42.204;24.686;2023-06-10T10:38:41;98832.25;;;28.93;54.45
7668;BME280;3876;42.204;24.686;2023-06-10T10:41:10;98827.19;;;28.84;54.51
7668;BME280;3876;42.204;24.686;2023-06-10T10:43:38;98831.13;;;28.57;55.54
7668;BME280;3876;42.204;24.686;2023-06-10T10:46:12;98826.97;;;28.71;55.88
7668;BME280;3876;42.204;24.686;2023-06-10T10:48:40;98833.91;;;28.94;57.39
7668;BME280;3876;42.204;24.686;2023-06-10T10:51:08;98825.06;;;28.79;55.75
7668;BME280;3876;42.204;24.686;2023-06-10T10:53:36;98826.56;;;28.51;56.54
7668;BME280;3876;42.204;24.686;2023-06-10T10:56:05;98829.59;;;28.40;55.67
7668;BME280;3876;42.204;24.686;2023-06-10T10:58:33;98829.94;;;28.37;56.86
7668;BME280;3876;42.204;24.686;2023-06-10T11:01:10;98837.09;;;28.51;56.48
7668;BME280;3876;42.204;24.686;2023-06-10T11:03:42;98830.09;;;28.35;57.03
7668;BME280;3876;42.204;24.686;2023-06-10T11:06:12;98827.63;;;28.34;56.24
7668;BME280;3876;42.204;24.686;2023-06-10T11:08:46;98820.19;;;28.06;57.24
7668;BME280;3876;42.204;24.686;2023-06-10T11:11:19;98819.59;;;27.88;58.12
7668;BME280;3876;42.204;24.686;2023-06-10T11:14:06;98799.22;;;27.66;58.78
7668;BME280;3876;42.204;24.686;2023-06-10T11:16:41;98817.69;;;27.58;59.10
7668;BME280;3876;42.204;24.686;2023-06-10T11:19:08;98815.72;;;27.36;60.04
7668;BME280;3876;42.204;24.686;2023-06-10T11:21:58;98820.66;;;27.47;59.30
7668;BME280;3876;42.204;24.686;2023-06-10T11:24:26;98808.66;;;27.36;59.75
7668;BME280;3876;42.204;24.686;2023-06-10T11:26:53;98801.25;;;27.48;59.52
7668;BME280;3876;42.204;24.686;2023-06-10T11:29:19;98792.28;;;27.73;59.97
7668;BME280;3876;42.204;24.686;2023-06-10T11:31:50;98799.78;;;27.92;56.96
7668;BME280;3876;42.204;24.686;2023-06-10T11:34:24;98800.47;;;27.86;57.76
7668;BME280;3876;42.204;24.686;2023-06-10T11:36:53;98796.72;;;27.81;56.71
7668;BME280;3876;42.204;24.686;2023-06-10T11:39:21;98795.81;;;28.04;56.93
7668;BME280;3876;42.204;24.686;2023-06-10T11:41:50;98801.66;;;28.23;55.70
7668;BME280;3876;42.204;24.686;2023-06-10T11:44:17;98800.81;;;28.30;53.32
7668;BME280;3876;42.204;24.686;2023-06-10T11:46:44;98792.31;;;28.20;53.79
7668;BME280;3876;42.204;24.686;2023-06-10T11:49:12;98791.59;;;28.26;54.44
7668;BME280;3876;42.204;24.686;2023-06-10T11:51:40;98796.75;;;28.20;55.05
7668;BME280;3876;42.204;24.686;2023-06-10T11:54:14;98783.56;;;28.20;53.14
7668;BME280;3876;42.204;24.686;2023-06-10T11:56:41;98787.41;;;28.40;53.88
7668;BME280;3876;42.204;24.686;2023-06-10T11:59:08;98781.34;;;28.62;53.74
7668;BME280;3876;42.204;24.686;2023-06-10T12:01:36;98758.31;;;28.79;54.86
7668;BME280;3876;42.204;24.686;2023-06-10T12:04:06;98772.13;;;29.03;53.97
7668;BME280;3876;42.204;24.686;2023-06-10T12:06:42;98764.22;;;29.03;51.39
7668;BME280;3876;42.204;24.686;2023-06-10T12:09:18;98781.47;;;29.29;52.43
7668;BME280;3876;42.204;24.686;2023-06-10T12:11:45;98775.78;;;29.40;51.63
7668;BME280;3876;42.204;24.686;2023-06-10T12:14:14;98767.50;;;29.43;52.95
7668;BME280;3876;42.204;24.686;2023-06-10T12:16:48;98768.94;;;29.60;55.59
7668;BME280;3876;42.204;24.686;2023-06-10T12:19:15;98774.31;;;29.81;52.23
7668;BME280;3876;42.204;24.686;2023-06-10T12:21:44;98757.75;;;29.87;51.17
7668;BME280;3876;42.204;24.686;2023-06-10T12:24:11;98767.88;;;29.84;50.57
7668;BME280;3876;42.204;24.686;2023-06-10T12:26:43;98766.66;;;29.72;52.62
7668;BME280;3876;42.204;24.686;2023-06-10T12:29:18;98765.31;;;29.76;51.25
7668;BME280;3876;42.204;24.686;2023-06-10T12:31:57;98762.13;;;29.65;51.91
7668;BME280;3876;42.204;24.686;2023-06-10T12:34:31;98736.22;;;29.61;50.51
7668;BME280;3876;42.204;24.686;2023-06-10T12:37:00;98737.31;;;29.66;52.50
7668;BME280;3876;42.204;24.686;2023-06-10T12:39:26;98751.91;;;29.48;50.69
7668;BME280;3876;42.204;24.686;2023-06-10T12:41:54;98747.91;;;29.52;50.53
7668;BME280;3876;42.204;24.686;2023-06-10T12:44:31;98746.88;;;29.38;49.94
7668;BME280;3876;42.204;24.686;2023-06-10T12:46:58;98741.25;;;29.56;51.99
7668;BME280;3876;42.204;24.686;2023-06-10T12:49:25;98731.22;;;29.81;52.13
7668;BME280;3876;42.204;24.686;2023-06-10T12:51:53;98720.09;;;30.00;53.99
7668;BME280;3876;42.204;24.686;2023-06-10T12:54:21;98727.94;;;29.93;51.53
7668;BME280;3876;42.204;24.686;2023-06-10T12:56:48;98721.66;;;29.94;53.14
7668;BME280;3876;42.204;24.686;2023-06-10T12:59:15;98705.88;;;29.86;50.40
7668;BME280;3876;42.204;24.686;2023-06-10T13:01:42;98711.78;;;30.03;52.24
7668;BME280;3876;42.204;24.686;2023-06-10T13:04:09;98711.69;;;30.11;51.72
7668;BME280;3876;42.204;24.686;2023-06-10T13:06:35;98711.81;;;30.24;52.17
7668;BME280;3876;42.204;24.686;2023-06-10T13:09:07;98713.00;;;30.21;48.99